createdAt,value
2018-06-20T00:00:12.284Z,62.94
2018-06-20T00:03:36.985Z,62.53
2018-06-20T00:07:01.582Z,62.49
2018-06-20T00:10:29.884Z,63.14
2018-06-20T00:13:55.543Z,62.90
2018-06-20T00:17:20.229Z,62.76
2018-06-20T00:20:44.913Z,62.15
2018-06-20T00:24:09.576Z,63.14
2018-06-20T00:27:33.875Z,63.37
2018-06-20T00:30:58.509Z,64.09
2018-06-20T00:34:23.286Z,64.56
2018-06-20T00:37:47.924Z,62.54
2018-06-20T00:41:12.617Z,64.60
2018-06-20T00:44:37.369Z,64.20
2018-06-20T00:48:02.008Z,65.63
2018-06-20T00:51:26.657Z,64.66
2018-06-20T00:54:51.255Z,65.08
2018-06-20T00:58:15.837Z,64.32
2018-06-20T01:01:40.456Z,64.68
2018-06-20T01:05:05.928Z,65.00
2018-06-20T01:08:30.544Z,65.29
2018-06-20T01:11:55.249Z,64.57
2018-06-20T01:15:19.854Z,65.54
2018-06-20T01:18:44.452Z,65.85
2018-06-20T01:22:09.174Z,66.33
2018-06-20T01:25:33.846Z,67.23
2018-06-20T01:28:58.574Z,67.28
2018-06-20T01:32:23.232Z,66.77
2018-06-20T01:35:47.842Z,66.43
2018-06-20T01:39:12.704Z,65.18
2018-06-20T01:42:37.138Z,66.57
2018-06-20T01:46:01.813Z,66.59
2018-06-20T01:49:26.612Z,66.99
2018-06-20T01:52:51.253Z,66.86
2018-06-20T01:56:15.868Z,66.98
2018-06-20T01:59:40.568Z,67.83
2018-06-20T02:03:05.206Z,67.73
2018-06-20T02:06:29.894Z,68.27
2018-06-20T02:09:54.556Z,68.57
2018-06-20T02:13:19.226Z,68.79
2018-06-20T02:16:43.928Z,69.11
2018-06-20T02:20:08.641Z,68.15
2018-06-20T02:23:33.290Z,67.63
2018-06-20T02:26:57.910Z,68.04
2018-06-20T02:30:22.551Z,67.83
2018-06-20T02:33:47.195Z,67.76
2018-06-20T02:37:11.501Z,70.00
2018-06-20T02:40:36.186Z,69.38
2018-06-20T02:44:00.845Z,68.59
2018-06-20T02:47:30.743Z,69.03
2018-06-20T02:50:55.408Z,69.18
2018-06-20T02:54:20.232Z,69.60
2018-06-20T02:57:44.913Z,69.06
2018-06-20T03:01:09.598Z,70.68
2018-06-20T03:04:34.035Z,69.02
2018-06-20T03:07:58.699Z,70.15
2018-06-20T03:11:23.394Z,69.50
2018-06-20T03:14:48.043Z,69.10
2018-06-20T03:18:12.696Z,69.67
2018-06-20T03:21:37.374Z,69.03
2018-06-20T03:25:02.043Z,68.96
2018-06-20T03:28:26.798Z,69.94
2018-06-20T03:31:51.477Z,69.16
2018-06-20T03:35:16.121Z,71.10
2018-06-20T03:38:40.760Z,70.92
2018-06-20T03:42:05.425Z,72.20
2018-06-20T03:45:29.758Z,72.90
2018-06-20T03:48:54.733Z,72.30
2018-06-20T03:52:19.448Z,73.27
2018-06-20T03:55:44.070Z,73.02
2018-06-20T03:59:08.737Z,73.41
2018-06-20T04:02:33.377Z,72.56
2018-06-20T04:05:58.023Z,72.62
2018-06-20T04:09:22.629Z,72.31
2018-06-20T04:12:46.989Z,72.74
2018-06-20T04:16:11.613Z,72.45
2018-06-20T04:19:35.900Z,72.25
2018-06-20T04:23:00.629Z,73.13
2018-06-20T04:26:25.333Z,71.75
2018-06-20T04:29:49.977Z,72.29
2018-06-20T04:33:14.646Z,71.62
2018-06-20T04:36:39.213Z,69.86
2018-06-20T04:40:03.925Z,70.61
2018-06-20T04:43:28.540Z,70.45
2018-06-20T04:46:54.196Z,69.71
2018-06-20T04:50:18.754Z,69.61
2018-06-20T04:53:43.421Z,69.45
2018-06-20T04:57:08.044Z,70.25
2018-06-20T05:00:32.324Z,69.19
2018-06-20T05:03:56.598Z,69.46
2018-06-20T05:07:21.272Z,68.91
2018-06-20T05:10:45.558Z,69.10
2018-06-20T05:14:10.250Z,68.86
2018-06-20T05:17:34.839Z,68.54
2018-06-20T05:20:59.455Z,69.28
2018-06-20T05:24:24.212Z,69.56
2018-06-20T05:27:48.838Z,69.59
2018-06-20T05:31:13.451Z,69.68
2018-06-20T05:34:38.125Z,68.21
2018-06-20T05:38:02.726Z,67.74
2018-06-20T05:41:27.345Z,68.01
2018-06-20T05:44:51.939Z,67.97
2018-06-20T05:48:16.572Z,68.08
2018-06-20T05:51:41.221Z,68.06
2018-06-20T05:55:05.972Z,67.00
2018-06-20T05:58:30.612Z,67.13
2018-06-20T06:01:55.005Z,67.22
2018-06-20T06:05:19.709Z,67.37
2018-06-20T06:08:45.005Z,67.20
2018-06-20T06:12:09.715Z,66.81
2018-06-20T06:15:34.355Z,67.28
2018-06-20T06:18:59.007Z,65.86
2018-06-20T06:22:23.596Z,65.88
2018-06-20T06:25:48.264Z,66.21
2018-06-20T06:29:12.871Z,65.49
2018-06-20T06:32:37.574Z,65.46
2018-06-20T06:36:02.268Z,64.85
2018-06-20T06:39:26.915Z,65.40
2018-06-20T06:42:51.601Z,64.61
2018-06-20T06:46:16.239Z,63.79
2018-06-20T06:49:41.111Z,63.61
2018-06-20T06:53:05.777Z,63.06
2018-06-20T06:56:30.529Z,62.34
2018-06-20T06:59:55.180Z,62.60
2018-06-20T07:03:19.817Z,61.10
2018-06-20T07:06:44.474Z,60.48
2018-06-20T07:10:09.145Z,60.93
2018-06-20T07:13:33.749Z,60.42
2018-06-20T07:16:58.482Z,59.94
2018-06-20T07:20:23.145Z,59.58
2018-06-20T07:23:47.757Z,59.29
2018-06-20T07:27:12.445Z,58.28
2018-06-20T07:30:37.063Z,58.46
2018-06-20T07:34:01.757Z,57.39
2018-06-20T07:37:26.739Z,57.31
2018-06-20T07:40:51.358Z,57.84
2018-06-20T07:44:16.059Z,57.16
2018-06-20T07:47:40.751Z,56.16
2018-06-20T07:51:05.114Z,55.99
2018-06-20T07:54:29.907Z,55.73
2018-06-20T07:57:54.638Z,55.63
2018-06-20T08:01:41.519Z,55.73
2018-06-20T08:05:11.772Z,56.21
2018-06-20T08:08:41.945Z,54.30
2018-06-20T08:12:12.460Z,55.19
2018-06-20T08:15:43.853Z,54.73
2018-06-20T08:19:13.805Z,55.58
2018-06-20T08:22:38.571Z,55.11
2018-06-20T08:26:03.299Z,54.31
2018-06-20T08:29:27.944Z,55.19
2018-06-20T08:32:52.688Z,53.61
2018-06-20T08:36:17.370Z,54.13
2018-06-20T08:39:41.997Z,54.14
2018-06-20T08:43:06.638Z,54.25
2018-06-20T08:46:31.277Z,53.95
2018-06-20T08:49:56.343Z,53.71
2018-06-20T08:53:21.029Z,54.05
2018-06-20T08:56:45.746Z,53.92
2018-06-20T09:00:10.410Z,53.39
2018-06-20T09:03:35.299Z,52.65
2018-06-20T09:08:08.950Z,50.37
2018-06-20T09:11:38.938Z,48.98
2018-06-20T09:15:09.078Z,49.20
2018-06-20T09:18:39.042Z,49.62
2018-06-20T09:22:03.790Z,50.94
2018-06-20T09:25:28.165Z,51.19
2018-06-20T09:28:52.920Z,50.62
2018-06-20T09:32:17.222Z,48.55
2018-06-20T09:35:41.927Z,48.71
2018-06-20T09:39:08.508Z,48.46
2018-06-20T09:42:33.134Z,49.15
2018-06-20T09:45:57.806Z,48.33
2018-06-20T09:49:23.612Z,47.25
2018-06-20T09:52:48.606Z,48.26
2018-06-20T09:56:14.108Z,48.87
2018-06-20T09:59:44.318Z,48.52
2018-06-20T10:03:14.188Z,47.53
2018-06-20T10:06:44.282Z,47.12
2018-06-20T10:10:13.986Z,47.00
2018-06-20T10:13:44.721Z,46.19
2018-06-20T10:17:09.101Z,45.58
2018-06-20T10:20:33.746Z,45.14
2018-06-20T10:23:58.568Z,45.60
2018-06-20T10:27:22.975Z,45.48
2018-06-20T10:30:47.622Z,44.65
2018-06-20T10:34:12.303Z,44.25
2018-06-20T10:37:36.898Z,44.51
2018-06-20T10:41:01.219Z,43.52
2018-06-20T10:44:25.818Z,44.26
2018-06-20T10:47:51.600Z,44.58
2018-06-20T10:51:15.971Z,43.03
2018-06-20T10:54:40.681Z,44.33
2018-06-20T10:58:11.283Z,43.40
2018-06-20T11:01:41.267Z,44.43
2018-06-20T11:05:11.370Z,42.90
2018-06-20T11:08:41.503Z,43.30
2018-06-20T11:12:11.296Z,41.01
2018-06-20T11:15:36.198Z,42.29
2018-06-20T11:19:00.874Z,42.59
2018-06-20T11:22:25.223Z,41.28
2018-06-20T11:25:49.892Z,41.32
2018-06-20T11:29:14.774Z,42.04
2018-06-20T11:32:39.328Z,40.98
2018-06-20T11:36:03.961Z,40.96
2018-06-20T11:39:28.831Z,39.93
2018-06-20T11:42:53.556Z,40.32
2018-06-20T11:47:28.100Z,39.92
2018-06-20T11:50:52.744Z,38.29
2018-06-20T11:54:17.410Z,38.07
2018-06-20T11:57:41.719Z,37.23
2018-06-20T12:02:11.586Z,37.21
2018-06-20T12:06:44.196Z,36.83
2018-06-20T12:10:14.346Z,35.72
2018-06-20T12:13:44.379Z,34.92
2018-06-20T12:17:08.081Z,35.48
2018-06-20T12:20:38.804Z,34.55
2018-06-20T12:24:08.924Z,34.27
2018-06-20T12:27:39.236Z,34.29
2018-06-20T12:31:09.271Z,34.15
2018-06-20T12:34:40.414Z,34.64
2018-06-20T12:38:10.340Z,34.43
2018-06-20T12:41:40.305Z,34.45
2018-06-20T12:45:06.317Z,33.25
2018-06-20T12:48:31.037Z,34.01
2018-06-20T12:51:55.678Z,32.15
2018-06-20T12:55:20.434Z,32.82
2018-06-20T12:58:45.123Z,32.37
2018-06-20T13:02:09.784Z,32.23
2018-06-20T13:05:34.493Z,33.48
2018-06-20T13:08:58.855Z,33.58
2018-06-20T13:12:23.504Z,32.29
2018-06-20T13:15:48.164Z,33.29
2018-06-20T13:19:12.856Z,33.80
2018-06-20T13:22:37.479Z,34.65
2018-06-20T13:26:02.163Z,33.40
2018-06-20T13:29:26.438Z,33.23
2018-06-20T13:32:56.359Z,33.45
2018-06-20T13:36:26.045Z,33.76
2018-06-20T13:39:55.997Z,34.00
2018-06-20T13:43:25.923Z,33.40
2018-06-20T13:46:55.764Z,33.12
2018-06-20T13:50:20.402Z,32.86
2018-06-20T13:53:45.032Z,32.62
2018-06-20T13:57:09.653Z,33.36
2018-06-20T14:00:34.286Z,32.51
2018-06-20T14:03:58.938Z,33.33
2018-06-20T14:07:23.355Z,32.52
2018-06-20T14:10:47.943Z,32.97
2018-06-20T14:14:12.834Z,32.68
2018-06-20T14:17:38.172Z,32.73
2018-06-20T14:21:08.009Z,31.96
2018-06-20T14:24:32.752Z,32.11
2018-06-20T14:27:57.428Z,31.46
2018-06-20T14:31:27.856Z,30.80
2018-06-20T14:34:58.203Z,30.79
2018-06-20T14:38:29.070Z,31.72
2018-06-20T14:41:59.175Z,30.99
2018-06-20T14:45:29.221Z,29.51
2018-06-20T14:48:53.640Z,29.16
2018-06-20T14:52:18.326Z,28.50
2018-06-20T14:55:43.055Z,28.05
2018-06-20T14:59:07.764Z,27.32
2018-06-20T15:02:32.466Z,27.27
2018-06-20T15:05:57.586Z,28.28
2018-06-20T15:09:22.306Z,26.10
2018-06-20T15:12:47.076Z,27.00
2018-06-20T15:16:17.028Z,26.27
2018-06-20T15:19:41.709Z,26.91
2018-06-20T15:23:06.450Z,26.37
2018-06-20T15:26:36.567Z,27.14
2018-06-20T15:30:06.448Z,26.81
2018-06-20T15:33:36.308Z,26.64
2018-06-20T15:37:06.341Z,25.90
2018-06-20T15:40:31.063Z,25.57
2018-06-20T15:43:55.727Z,24.64
2018-06-20T15:47:20.420Z,24.35
2018-06-20T15:50:45.164Z,24.50
2018-06-20T15:54:09.916Z,24.69
2018-06-20T15:57:34.726Z,24.97
2018-06-20T16:00:59.524Z,26.18
2018-06-20T16:04:24.209Z,24.19
2018-06-20T16:07:49.255Z,24.33
2018-06-20T16:11:13.921Z,24.45
2018-06-20T16:14:38.614Z,25.60
2018-06-20T16:18:03.313Z,24.10
2018-06-20T16:21:33.392Z,24.12
2018-06-20T16:25:03.446Z,23.01
2018-06-20T16:28:33.357Z,24.36
2018-06-20T16:31:58.113Z,23.94
2018-06-20T16:35:22.802Z,24.17
2018-06-20T16:38:47.525Z,23.92
2018-06-20T16:42:12.156Z,25.15
2018-06-20T16:45:36.841Z,26.07
2018-06-20T16:49:01.625Z,25.96
2018-06-20T16:52:26.508Z,25.14
2018-06-20T16:55:51.135Z,25.25
2018-06-20T16:59:15.905Z,25.82
2018-06-20T17:02:41.864Z,27.52
2018-06-20T17:06:06.544Z,26.35
2018-06-20T17:09:31.173Z,25.40
2018-06-20T17:13:01.132Z,26.25
2018-06-20T17:16:31.069Z,25.91
2018-06-20T17:20:00.759Z,25.44
2018-06-20T17:23:30.739Z,25.39
2018-06-20T17:26:55.394Z,27.13
2018-06-20T17:30:20.026Z,27.23
2018-06-20T17:33:44.791Z,26.56
2018-06-20T17:37:09.448Z,27.32
2018-06-20T17:40:34.175Z,25.84
2018-06-20T17:43:58.512Z,27.08
2018-06-20T17:47:23.334Z,26.91
2018-06-20T17:50:48.016Z,27.53
2018-06-20T17:54:12.617Z,28.06
2018-06-20T17:57:37.599Z,27.45
2018-06-20T18:01:07.506Z,26.94
2018-06-20T18:04:37.440Z,27.92
2018-06-20T18:08:07.107Z,26.86
2018-06-20T18:11:37.108Z,26.29
2018-06-20T18:15:07.024Z,26.33
2018-06-20T18:18:32.654Z,27.68
2018-06-20T18:21:57.632Z,27.92
2018-06-20T18:25:22.279Z,27.14
2018-06-20T18:28:46.953Z,27.51
2018-06-20T18:32:11.243Z,26.84
2018-06-20T18:35:36.377Z,28.64
2018-06-20T18:39:01.869Z,28.91
2018-06-20T18:42:26.595Z,29.44
2018-06-20T18:45:51.276Z,30.53
2018-06-20T18:49:15.996Z,31.54
2018-06-20T18:52:40.716Z,31.96
2018-06-20T18:56:05.586Z,32.56
2018-06-20T18:59:35.739Z,33.80
2018-06-20T19:03:06.320Z,33.99
2018-06-20T19:06:36.307Z,35.72
2018-06-20T19:10:02.898Z,37.29
2018-06-20T19:13:27.719Z,37.55
2018-06-20T19:16:52.456Z,37.90
2018-06-20T19:20:17.111Z,37.24
2018-06-20T19:23:41.802Z,38.74
2018-06-20T19:27:06.554Z,37.99
2018-06-20T19:30:31.347Z,39.84
2018-06-20T19:33:56.022Z,40.30
2018-06-20T19:37:20.741Z,40.72
2018-06-20T19:40:46.545Z,40.63
2018-06-20T19:44:33.032Z,41.42
2018-06-20T19:47:58.206Z,42.32
2018-06-20T19:51:23.291Z,42.47
2018-06-20T19:54:49.830Z,44.04
2018-06-20T19:58:16.205Z,43.71
2018-06-20T20:01:41.678Z,44.59
2018-06-20T20:05:07.475Z,44.55
2018-06-20T20:17:36.145Z,45.52
2018-06-20T20:21:02.663Z,44.61
2018-06-20T20:24:28.043Z,44.69
2018-06-20T20:27:53.034Z,45.36
2018-06-20T20:31:19.057Z,46.44
2018-06-20T20:34:43.721Z,47.25
2018-06-20T20:38:08.364Z,47.00
2018-06-20T20:41:32.756Z,47.09
2018-06-20T20:44:57.354Z,48.39
2018-06-20T20:48:22.176Z,48.32
2018-06-20T20:51:47.726Z,48.52
2018-06-20T20:55:12.423Z,49.24
2018-06-20T20:58:37.151Z,49.35
2018-06-20T21:02:01.847Z,48.81
2018-06-20T21:05:26.816Z,50.71
2018-06-20T21:08:52.641Z,51.33
2018-06-20T21:12:16.913Z,51.13
2018-06-20T21:15:41.697Z,50.93
2018-06-20T21:19:06.542Z,52.06
2018-06-20T21:22:30.865Z,52.62
2018-06-20T21:25:55.512Z,52.20
2018-06-20T21:29:20.209Z,53.22
2018-06-20T21:32:44.881Z,53.33
2018-06-20T21:36:09.233Z,53.16
2018-06-20T21:39:34.020Z,51.99
2018-06-20T21:42:58.779Z,53.66
2018-06-20T21:46:23.573Z,53.64
2018-06-20T21:49:48.412Z,53.20
2018-06-20T21:53:13.137Z,53.81
2018-06-20T21:56:37.719Z,55.20
2018-06-20T22:00:02.533Z,55.14
2018-06-20T22:03:27.307Z,54.35
2018-06-20T22:06:52.133Z,55.08
2018-06-20T22:10:16.529Z,55.57
2018-06-20T22:13:40.821Z,54.83
2018-06-20T22:17:05.559Z,55.74
2018-06-20T22:20:30.387Z,55.11
2018-06-20T22:23:55.793Z,56.54
2018-06-20T22:27:20.666Z,58.11
2018-06-20T22:30:45.417Z,57.51
2018-06-20T22:34:09.742Z,57.87
2018-06-20T22:37:34.485Z,57.34
2018-06-20T22:40:59.262Z,57.36
2018-06-20T22:44:24.044Z,57.53
2018-06-20T22:47:48.846Z,58.96
2018-06-20T22:51:13.566Z,58.85
2018-06-20T22:54:38.242Z,59.90
2018-06-20T22:58:02.956Z,60.13
2018-06-20T23:01:27.720Z,59.93
2018-06-20T23:04:52.507Z,59.38
2018-06-20T23:08:17.167Z,60.04
2018-06-20T23:11:47.387Z,60.43
2018-06-20T23:15:12.238Z,61.55
2018-06-20T23:18:36.928Z,60.46
2018-06-20T23:22:01.668Z,60.52
2018-06-20T23:25:26.022Z,62.28
2018-06-20T23:28:50.697Z,61.60
2018-06-20T23:32:15.342Z,62.91
2018-06-20T23:35:39.978Z,61.04
2018-06-20T23:39:07.012Z,62.28
2018-06-20T23:42:31.676Z,61.67
2018-06-20T23:45:56.390Z,62.69
2018-06-20T23:49:21.016Z,62.26
2018-06-20T23:52:45.784Z,63.65
2018-06-20T23:56:10.586Z,63.46
2018-06-20T23:59:35.019Z,63.61
